Ashton, NE (68817)

4:18 PM CST on February 01, 2015 (GMT -0600)
Central | Change Station
CLOSE
Current Station
Personal Weather Station
Location: Loup City, NE
Elevation: 2090 ft
Nearby Weather Stations
Active Advisory: Winter Weather Advisory Active Notice: Record Report

Elev 2090 ft 41.28 °N, 98.97 °W | Updated 4 minutes ago

Snow
Snow
7.7 °F
Feels Like -11 °F
N
18.6
Wind Variable Wind from WNW

Today
High -- | Low -- °F
--% Chance of Precip.
Yesterday
High -- | Low -- °F
Precip. -- in
7:46 AM 5:51 PM
Waxing Gibbous, 96% visible
Pressure 30.41 in
Visibility 3.0 miles
Clouds Overcast 1700 ft
Windchill -11 °F
Dew Point 4 °F
Humidity 86%
Rainfall 0.00 in
Snow Depth Not available.
UV 0 out of 12
Pollen .10 out of 12
Air Quality Not available.
Flu Activity Not available.
METAR KODX 012153Z AUTO 34020G27KT 3SM UP OVC017 M14/M19 A3027 RMK AO2 PK WND 33032/2108 UPB45SNE45 SLP298 P0000 T11441189 $

More Conditions Fewer Conditions

Pressure 30.41 in
Visibility 3.0 miles
Clouds Overcast 1700 ft
Windchill -11 °F
Dew Point 4 °F
Humidity 86%
Rainfall 0.00 in
Snow Depth Not available.
UV 0 out of 12
Pollen .10 out of 12
Air Quality Not available.
Flu Activity Not available.
METAR KODX 012153Z AUTO 34020G27KT 3SM UP OVC017 M14/M19 A3027 RMK AO2 PK WND 33032/2108 UPB45SNE45 SLP298 P0000 T11441189 $

More Conditions Fewer Conditions

10-Day Weather Forecast

Almanac

Astronomy

Feb. 01, 2015 Rise Set
Actual Time
Civil Twilight
Nautical Twilight
Astronomical Twilight
Moon
Length of Visible Light
Length of Day
Tomorrow will be .
, % of the Moon is Illuminated

Today's Extremes

State Highs State Lows

Community

WunderPhotos

Upload Photos

1,792,563 photos uploaded!

WunderBlogs® & News

Nearby

Air Quality

  Air Quality AQ Index Pollutant
Not available.

Snow Depth

Station Depth Elevation

Earthquake Activity

City Distance Mag. Time & Date
Minimum magnitude displayed is 2.5.

Coastal Water Temperatures

Place Temperature

Nearby Weather Stations